sensor_id;sensor_type;location;lat;lon;timestamp;P1;durP1;ratioP1;P2;durP2;ratioP2
68398;SDS011;56258;52.196;13.868;2022-12-18T00:02:12;6.38;;;2.20;;
68398;SDS011;56258;52.196;13.868;2022-12-18T00:04:39;7.57;;;2.15;;
68398;SDS011;56258;52.196;13.868;2022-12-18T00:07:05;6.90;;;2.20;;
68398;SDS011;56258;52.196;13.868;2022-12-18T00:09:32;6.40;;;2.13;;
68398;SDS011;56258;52.196;13.868;2022-12-18T00:12:05;6.43;;;1.83;;
68398;SDS011;56258;52.196;13.868;2022-12-18T00:14:44;7.07;;;2.38;;
68398;SDS011;56258;52.196;13.868;2022-12-18T00:17:10;6.88;;;2.33;;
68398;SDS011;56258;52.196;13.868;2022-12-18T00:19:37;7.78;;;2.45;;
68398;SDS011;56258;52.196;13.868;2022-12-18T00:22:04;7.20;;;2.50;;
68398;SDS011;56258;52.196;13.868;2022-12-18T00:24:32;6.90;;;2.22;;
68398;SDS011;56258;52.196;13.868;2022-12-18T00:26:58;7.95;;;2.50;;
68398;SDS011;56258;52.196;13.868;2022-12-18T00:29:25;8.30;;;2.60;;
68398;SDS011;56258;52.196;13.868;2022-12-18T00:31:51;7.78;;;2.30;;
68398;SDS011;56258;52.196;13.868;2022-12-18T00:34:18;8.60;;;2.80;;
68398;SDS011;56258;52.196;13.868;2022-12-18T00:36:47;7.05;;;2.15;;
68398;SDS011;56258;52.196;13.868;2022-12-18T00:39:13;7.57;;;2.25;;
68398;SDS011;56258;52.196;13.868;2022-12-18T00:41:40;7.97;;;2.38;;
68398;SDS011;56258;52.196;13.868;2022-12-18T00:44:25;7.22;;;2.13;;
68398;SDS011;56258;52.196;13.868;2022-12-18T00:46:52;6.03;;;1.70;;
68398;SDS011;56258;52.196;13.868;2022-12-18T00:49:19;7.25;;;2.30;;
68398;SDS011;56258;52.196;13.868;2022-12-18T00:51:46;8.07;;;2.58;;
68398;SDS011;56258;52.196;13.868;2022-12-18T00:54:14;6.90;;;2.25;;
68398;SDS011;56258;52.196;13.868;2022-12-18T00:56:41;7.28;;;2.17;;
68398;SDS011;56258;52.196;13.868;2022-12-18T00:59:15;6.90;;;2.10;;
68398;SDS011;56258;52.196;13.868;2022-12-18T01:01:43;7.22;;;1.98;;
68398;SDS011;56258;52.196;13.868;2022-12-18T01:04:11;7.57;;;2.53;;
68398;SDS011;56258;52.196;13.868;2022-12-18T01:06:37;8.82;;;2.15;;
68398;SDS011;56258;52.196;13.868;2022-12-18T01:09:05;8.35;;;2.28;;
68398;SDS011;56258;52.196;13.868;2022-12-18T01:11:32;7.88;;;2.13;;
68398;SDS011;56258;52.196;13.868;2022-12-18T01:14:01;7.25;;;2.15;;
68398;SDS011;56258;52.196;13.868;2022-12-18T01:16:28;7.80;;;2.50;;
68398;SDS011;56258;52.196;13.868;2022-12-18T01:18:55;7.63;;;2.20;;
68398;SDS011;56258;52.196;13.868;2022-12-18T01:21:22;7.40;;;2.30;;
68398;SDS011;56258;52.196;13.868;2022-12-18T01:23:54;7.50;;;2.75;;
68398;SDS011;56258;52.196;13.868;2022-12-18T01:26:22;6.93;;;2.38;;
68398;SDS011;56258;52.196;13.868;2022-12-18T01:28:49;8.18;;;2.70;;
68398;SDS011;56258;52.196;13.868;2022-12-18T01:31:26;8.32;;;2.60;;
68398;SDS011;56258;52.196;13.868;2022-12-18T01:33:54;8.10;;;2.63;;
68398;SDS011;56258;52.196;13.868;2022-12-18T01:36:26;7.97;;;2.60;;
68398;SDS011;56258;52.196;13.868;2022-12-18T01:38:55;7.38;;;2.28;;
68398;SDS011;56258;52.196;13.868;2022-12-18T01:41:23;8.07;;;2.42;;
68398;SDS011;56258;52.196;13.868;2022-12-18T01:43:54;7.35;;;2.50;;
68398;SDS011;56258;52.196;13.868;2022-12-18T01:46:26;8.30;;;2.60;;
68398;SDS011;56258;52.196;13.868;2022-12-18T01:48:55;8.07;;;2.78;;
68398;SDS011;56258;52.196;13.868;2022-12-18T01:51:29;9.27;;;2.88;;
68398;SDS011;56258;52.196;13.868;2022-12-18T01:53:56;7.63;;;2.38;;
68398;SDS011;56258;52.196;13.868;2022-12-18T01:56:25;9.18;;;2.70;;
68398;SDS011;56258;52.196;13.868;2022-12-18T01:59:00;8.02;;;2.30;;
68398;SDS011;56258;52.196;13.868;2022-12-18T02:01:30;7.80;;;2.60;;
68398;SDS011;56258;52.196;13.868;2022-12-18T02:06:53;8.02;;;2.60;;
68398;SDS011;56258;52.196;13.868;2022-12-18T02:09:31;7.65;;;2.80;;
68398;SDS011;56258;52.196;13.868;2022-12-18T02:14:59;9.93;;;2.97;;
68398;SDS011;56258;52.196;13.868;2022-12-18T02:26:12;9.15;;;3.05;;
68398;SDS011;56258;52.196;13.868;2022-12-18T02:29:28;7.82;;;2.30;;
68398;SDS011;56258;52.196;13.868;2022-12-18T02:32:12;8.02;;;2.50;;
68398;SDS011;56258;52.196;13.868;2022-12-18T02:34:34;7.88;;;2.75;;
68398;SDS011;56258;52.196;13.868;2022-12-18T02:37:06;8.55;;;2.58;;
68398;SDS011;56258;52.196;13.868;2022-12-18T02:39:37;7.95;;;2.78;;
68398;SDS011;56258;52.196;13.868;2022-12-18T02:42:05;8.32;;;2.65;;
68398;SDS011;56258;52.196;13.868;2022-12-18T02:44:41;8.57;;;2.90;;
68398;SDS011;56258;52.196;13.868;2022-12-18T02:47:12;8.57;;;2.90;;
68398;SDS011;56258;52.196;13.868;2022-12-18T02:52:44;8.23;;;2.63;;
68398;SDS011;56258;52.196;13.868;2022-12-18T02:55:45;8.10;;;2.72;;
68398;SDS011;56258;52.196;13.868;2022-12-18T03:00:59;10.15;;;2.95;;
68398;SDS011;56258;52.196;13.868;2022-12-18T03:03:46;8.93;;;3.08;;
68398;SDS011;56258;52.196;13.868;2022-12-18T03:06:39;8.32;;;2.80;;
68398;SDS011;56258;52.196;13.868;2022-12-18T03:09:12;8.70;;;2.70;;
68398;SDS011;56258;52.196;13.868;2022-12-18T03:11:45;7.82;;;2.75;;
68398;SDS011;56258;52.196;13.868;2022-12-18T03:14:37;8.93;;;2.78;;
68398;SDS011;56258;52.196;13.868;2022-12-18T03:17:07;8.52;;;2.75;;
68398;SDS011;56258;52.196;13.868;2022-12-18T03:19:41;8.70;;;2.88;;
68398;SDS011;56258;52.196;13.868;2022-12-18T03:22:11;9.05;;;2.60;;
68398;SDS011;56258;52.196;13.868;2022-12-18T03:24:39;7.97;;;2.60;;
68398;SDS011;56258;52.196;13.868;2022-12-18T03:27:07;8.35;;;2.65;;
68398;SDS011;56258;52.196;13.868;2022-12-18T03:29:43;7.75;;;2.70;;
68398;SDS011;56258;52.196;13.868;2022-12-18T03:32:36;9.35;;;3.20;;
68398;SDS011;56258;52.196;13.868;2022-12-18T03:35:08;8.27;;;2.75;;
68398;SDS011;56258;52.196;13.868;2022-12-18T03:37:39;8.10;;;2.60;;
68398;SDS011;56258;52.196;13.868;2022-12-18T03:40:06;8.02;;;2.63;;
68398;SDS011;56258;52.196;13.868;2022-12-18T03:42:52;7.68;;;2.75;;
68398;SDS011;56258;52.196;13.868;2022-12-18T03:45:38;8.15;;;2.65;;
68398;SDS011;56258;52.196;13.868;2022-12-18T03:48:28;8.00;;;2.60;;
68398;SDS011;56258;52.196;13.868;2022-12-18T03:51:20;8.48;;;2.88;;
68398;SDS011;56258;52.196;13.868;2022-12-18T03:53:51;8.40;;;2.65;;
68398;SDS011;56258;52.196;13.868;2022-12-18T03:56:25;7.93;;;2.30;;
68398;SDS011;56258;52.196;13.868;2022-12-18T03:58:55;8.32;;;2.88;;
68398;SDS011;56258;52.196;13.868;2022-12-18T04:01:28;8.25;;;2.60;;
68398;SDS011;56258;52.196;13.868;2022-12-18T04:03:59;8.07;;;2.53;;
68398;SDS011;56258;52.196;13.868;2022-12-18T04:06:28;8.57;;;2.53;;
68398;SDS011;56258;52.196;13.868;2022-12-18T04:08:56;9.30;;;2.90;;
68398;SDS011;56258;52.196;13.868;2022-12-18T04:11:24;8.43;;;2.78;;
68398;SDS011;56258;52.196;13.868;2022-12-18T04:13:52;8.40;;;2.78;;
68398;SDS011;56258;52.196;13.868;2022-12-18T04:16:22;8.45;;;2.92;;
68398;SDS011;56258;52.196;13.868;2022-12-18T04:18:49;8.55;;;2.67;;
68398;SDS011;56258;52.196;13.868;2022-12-18T04:21:15;8.20;;;2.78;;
68398;SDS011;56258;52.196;13.868;2022-12-18T04:23:42;9.57;;;3.10;;
68398;SDS011;56258;52.196;13.868;2022-12-18T04:26:09;8.23;;;2.83;;
68398;SDS011;56258;52.196;13.868;2022-12-18T04:28:35;7.60;;;2.67;;
68398;SDS011;56258;52.196;13.868;2022-12-18T04:31:02;8.15;;;2.67;;
68398;SDS011;56258;52.196;13.868;2022-12-18T04:33:28;9.18;;;3.33;;
68398;SDS011;56258;52.196;13.868;2022-12-18T04:35:55;9.70;;;3.30;;
68398;SDS011;56258;52.196;13.868;2022-12-18T04:38:22;9.27;;;3.15;;
68398;SDS011;56258;52.196;13.868;2022-12-18T04:40:48;8.27;;;3.00;;
68398;SDS011;56258;52.196;13.868;2022-12-18T04:43:15;10.05;;;3.28;;
68398;SDS011;56258;52.196;13.868;2022-12-18T04:45:42;7.80;;;2.50;;
68398;SDS011;56258;52.196;13.868;2022-12-18T04:48:08;9.38;;;3.15;;
68398;SDS011;56258;52.196;13.868;2022-12-18T04:50:35;8.20;;;2.92;;
68398;SDS011;56258;52.196;13.868;2022-12-18T04:53:02;8.55;;;2.70;;
68398;SDS011;56258;52.196;13.868;2022-12-18T04:55:29;8.00;;;2.67;;
68398;SDS011;56258;52.196;13.868;2022-12-18T04:57:56;9.57;;;3.20;;
68398;SDS011;56258;52.196;13.868;2022-12-18T05:00:22;8.98;;;3.10;;
68398;SDS011;56258;52.196;13.868;2022-12-18T05:02:49;8.18;;;2.50;;
68398;SDS011;56258;52.196;13.868;2022-12-18T05:05:16;8.75;;;2.92;;
68398;SDS011;56258;52.196;13.868;2022-12-18T05:07:42;8.82;;;2.80;;
68398;SDS011;56258;52.196;13.868;2022-12-18T05:10:09;9.25;;;3.30;;
68398;SDS011;56258;52.196;13.868;2022-12-18T05:12:36;8.52;;;2.92;;
68398;SDS011;56258;52.196;13.868;2022-12-18T05:15:27;9.88;;;3.20;;
68398;SDS011;56258;52.196;13.868;2022-12-18T05:17:58;8.82;;;3.10;;
68398;SDS011;56258;52.196;13.868;2022-12-18T05:20:25;8.65;;;3.10;;
68398;SDS011;56258;52.196;13.868;2022-12-18T05:22:52;9.75;;;3.20;;
68398;SDS011;56258;52.196;13.868;2022-12-18T05:25:19;9.55;;;3.28;;
68398;SDS011;56258;52.196;13.868;2022-12-18T05:27:47;9.27;;;2.95;;
68398;SDS011;56258;52.196;13.868;2022-12-18T05:30:14;8.88;;;3.20;;
68398;SDS011;56258;52.196;13.868;2022-12-18T05:32:42;8.85;;;2.97;;
68398;SDS011;56258;52.196;13.868;2022-12-18T05:35:09;8.63;;;3.30;;
68398;SDS011;56258;52.196;13.868;2022-12-18T05:37:37;8.38;;;2.72;;
68398;SDS011;56258;52.196;13.868;2022-12-18T05:40:08;9.23;;;2.90;;
68398;SDS011;56258;52.196;13.868;2022-12-18T05:42:36;9.32;;;3.15;;
68398;SDS011;56258;52.196;13.868;2022-12-18T05:45:03;9.40;;;3.30;;
68398;SDS011;56258;52.196;13.868;2022-12-18T05:47:31;8.98;;;3.20;;
68398;SDS011;56258;52.196;13.868;2022-12-18T05:49:57;8.93;;;3.00;;
68398;SDS011;56258;52.196;13.868;2022-12-18T05:52:24;8.65;;;2.88;;
68398;SDS011;56258;52.196;13.868;2022-12-18T05:54:50;9.10;;;3.10;;
68398;SDS011;56258;52.196;13.868;2022-12-18T05:57:17;8.90;;;3.20;;
68398;SDS011;56258;52.196;13.868;2022-12-18T05:59:44;8.40;;;3.15;;
68398;SDS011;56258;52.196;13.868;2022-12-18T06:02:10;8.18;;;2.80;;
68398;SDS011;56258;52.196;13.868;2022-12-18T06:04:37;8.52;;;3.05;;
68398;SDS011;56258;52.196;13.868;2022-12-18T06:07:04;9.10;;;3.30;;
68398;SDS011;56258;52.196;13.868;2022-12-18T06:09:30;9.10;;;3.22;;
68398;SDS011;56258;52.196;13.868;2022-12-18T06:11:58;9.07;;;3.17;;
68398;SDS011;56258;52.196;13.868;2022-12-18T06:14:24;8.80;;;3.13;;
68398;SDS011;56258;52.196;13.868;2022-12-18T06:16:51;8.98;;;3.60;;
68398;SDS011;56258;52.196;13.868;2022-12-18T06:19:18;9.75;;;3.30;;
68398;SDS011;56258;52.196;13.868;2022-12-18T06:21:45;9.27;;;3.45;;
68398;SDS011;56258;52.196;13.868;2022-12-18T06:24:11;8.40;;;3.03;;
68398;SDS011;56258;52.196;13.868;2022-12-18T06:26:38;10.60;;;3.80;;
68398;SDS011;56258;52.196;13.868;2022-12-18T06:29:05;10.65;;;3.72;;
68398;SDS011;56258;52.196;13.868;2022-12-18T06:31:32;11.13;;;3.65;;
68398;SDS011;56258;52.196;13.868;2022-12-18T06:34:01;10.52;;;3.70;;
68398;SDS011;56258;52.196;13.868;2022-12-18T06:36:29;11.40;;;3.83;;
68398;SDS011;56258;52.196;13.868;2022-12-18T06:38:56;10.25;;;4.03;;
68398;SDS011;56258;52.196;13.868;2022-12-18T06:41:23;9.65;;;3.25;;
68398;SDS011;56258;52.196;13.868;2022-12-18T06:43:50;10.10;;;3.70;;
68398;SDS011;56258;52.196;13.868;2022-12-18T06:46:23;10.82;;;3.67;;
68398;SDS011;56258;52.196;13.868;2022-12-18T06:48:50;10.80;;;4.10;;
68398;SDS011;56258;52.196;13.868;2022-12-18T06:51:17;10.60;;;3.65;;
68398;SDS011;56258;52.196;13.868;2022-12-18T06:53:48;9.32;;;3.30;;
68398;SDS011;56258;52.196;13.868;2022-12-18T06:56:15;9.75;;;3.63;;
68398;SDS011;56258;52.196;13.868;2022-12-18T06:58:42;9.60;;;3.50;;
68398;SDS011;56258;52.196;13.868;2022-12-18T07:01:09;9.77;;;3.45;;
68398;SDS011;56258;52.196;13.868;2022-12-18T07:03:40;11.50;;;3.70;;
68398;SDS011;56258;52.196;13.868;2022-12-18T07:06:12;10.35;;;3.40;;
68398;SDS011;56258;52.196;13.868;2022-12-18T07:08:41;10.57;;;3.95;;
68398;SDS011;56258;52.196;13.868;2022-12-18T07:11:07;11.15;;;3.95;;
68398;SDS011;56258;52.196;13.868;2022-12-18T07:13:34;10.85;;;3.75;;
68398;SDS011;56258;52.196;13.868;2022-12-18T07:16:19;11.27;;;4.13;;
68398;SDS011;56258;52.196;13.868;2022-12-18T07:18:51;10.55;;;3.63;;
68398;SDS011;56258;52.196;13.868;2022-12-18T07:21:18;10.50;;;3.63;;
68398;SDS011;56258;52.196;13.868;2022-12-18T07:23:46;10.38;;;3.60;;
68398;SDS011;56258;52.196;13.868;2022-12-18T07:26:15;11.52;;;4.03;;
68398;SDS011;56258;52.196;13.868;2022-12-18T07:28:43;10.68;;;3.75;;
68398;SDS011;56258;52.196;13.868;2022-12-18T07:31:14;10.88;;;3.72;;
68398;SDS011;56258;52.196;13.868;2022-12-18T07:33:44;9.40;;;3.63;;
68398;SDS011;56258;52.196;13.868;2022-12-18T07:36:11;11.30;;;3.80;;
68398;SDS011;56258;52.196;13.868;2022-12-18T07:38:38;10.45;;;3.63;;
68398;SDS011;56258;52.196;13.868;2022-12-18T07:41:10;10.82;;;4.00;;
68398;SDS011;56258;52.196;13.868;2022-12-18T07:43:38;10.57;;;3.83;;
68398;SDS011;56258;52.196;13.868;2022-12-18T07:46:07;10.13;;;3.83;;
68398;SDS011;56258;52.196;13.868;2022-12-18T07:48:35;9.68;;;3.28;;
68398;SDS011;56258;52.196;13.868;2022-12-18T07:51:03;10.45;;;3.67;;
68398;SDS011;56258;52.196;13.868;2022-12-18T07:53:31;9.73;;;3.60;;
68398;SDS011;56258;52.196;13.868;2022-12-18T07:56:00;11.13;;;3.70;;
68398;SDS011;56258;52.196;13.868;2022-12-18T07:58:48;10.38;;;3.50;;
68398;SDS011;56258;52.196;13.868;2022-12-18T08:01:15;9.48;;;3.17;;
68398;SDS011;56258;52.196;13.868;2022-12-18T08:03:42;10.10;;;3.47;;
68398;SDS011;56258;52.196;13.868;2022-12-18T08:06:09;10.52;;;4.05;;
68398;SDS011;56258;52.196;13.868;2022-12-18T08:08:36;10.50;;;3.20;;
68398;SDS011;56258;52.196;13.868;2022-12-18T08:11:03;9.10;;;3.40;;
68398;SDS011;56258;52.196;13.868;2022-12-18T08:13:30;9.77;;;3.40;;
68398;SDS011;56258;52.196;13.868;2022-12-18T08:16:03;9.77;;;3.55;;
68398;SDS011;56258;52.196;13.868;2022-12-18T08:18:32;13.20;;;3.70;;
68398;SDS011;56258;52.196;13.868;2022-12-18T08:21:10;10.40;;;3.83;;
68398;SDS011;56258;52.196;13.868;2022-12-18T08:23:38;9.77;;;3.60;;
68398;SDS011;56258;52.196;13.868;2022-12-18T08:26:08;12.35;;;3.60;;
68398;SDS011;56258;52.196;13.868;2022-12-18T08:28:36;10.07;;;3.33;;
68398;SDS011;56258;52.196;13.868;2022-12-18T08:31:03;10.10;;;3.63;;
68398;SDS011;56258;52.196;13.868;2022-12-18T08:33:30;11.20;;;3.60;;
68398;SDS011;56258;52.196;13.868;2022-12-18T08:36:01;9.32;;;3.13;;
68398;SDS011;56258;52.196;13.868;2022-12-18T08:38:28;9.32;;;3.00;;
68398;SDS011;56258;52.196;13.868;2022-12-18T08:40:58;8.90;;;3.00;;
68398;SDS011;56258;52.196;13.868;2022-12-18T08:43:29;9.45;;;3.15;;
68398;SDS011;56258;52.196;13.868;2022-12-18T08:46:17;8.75;;;2.88;;
68398;SDS011;56258;52.196;13.868;2022-12-18T08:48:45;9.85;;;3.38;;
68398;SDS011;56258;52.196;13.868;2022-12-18T08:51:13;9.00;;;3.20;;
68398;SDS011;56258;52.196;13.868;2022-12-18T08:53:42;9.15;;;3.22;;
68398;SDS011;56258;52.196;13.868;2022-12-18T08:56:10;9.25;;;3.30;;
68398;SDS011;56258;52.196;13.868;2022-12-18T08:58:37;9.52;;;3.10;;
68398;SDS011;56258;52.196;13.868;2022-12-18T09:01:05;8.82;;;2.88;;
68398;SDS011;56258;52.196;13.868;2022-12-18T09:03:33;9.93;;;3.10;;
68398;SDS011;56258;52.196;13.868;2022-12-18T09:06:00;9.48;;;3.40;;
68398;SDS011;56258;52.196;13.868;2022-12-18T09:08:27;8.82;;;3.10;;
68398;SDS011;56258;52.196;13.868;2022-12-18T09:10:54;8.55;;;3.00;;
68398;SDS011;56258;52.196;13.868;2022-12-18T09:13:21;10.23;;;3.25;;
68398;SDS011;56258;52.196;13.868;2022-12-18T09:15:49;10.23;;;3.50;;
68398;SDS011;56258;52.196;13.868;2022-12-18T09:18:18;8.18;;;2.78;;
68398;SDS011;56258;52.196;13.868;2022-12-18T09:20:46;10.25;;;3.42;;
68398;SDS011;56258;52.196;13.868;2022-12-18T09:23:13;9.73;;;3.13;;
68398;SDS011;56258;52.196;13.868;2022-12-18T09:25:40;8.32;;;3.13;;
68398;SDS011;56258;52.196;13.868;2022-12-18T09:28:10;9.20;;;2.97;;
68398;SDS011;56258;52.196;13.868;2022-12-18T09:30:37;8.65;;;3.00;;
68398;SDS011;56258;52.196;13.868;2022-12-18T09:33:05;8.65;;;2.90;;
68398;SDS011;56258;52.196;13.868;2022-12-18T09:35:32;9.25;;;3.05;;
68398;SDS011;56258;52.196;13.868;2022-12-18T09:38:02;8.85;;;2.97;;
68398;SDS011;56258;52.196;13.868;2022-12-18T09:40:29;8.57;;;3.03;;
68398;SDS011;56258;52.196;13.868;2022-12-18T09:43:03;8.25;;;2.80;;
68398;SDS011;56258;52.196;13.868;2022-12-18T09:45:40;9.20;;;2.92;;
68398;SDS011;56258;52.196;13.868;2022-12-18T09:48:14;9.32;;;3.22;;
68398;SDS011;56258;52.196;13.868;2022-12-18T09:50:49;9.00;;;2.97;;
68398;SDS011;56258;52.196;13.868;2022-12-18T09:53:22;9.18;;;3.00;;
68398;SDS011;56258;52.196;13.868;2022-12-18T09:55:52;8.90;;;2.90;;
68398;SDS011;56258;52.196;13.868;2022-12-18T09:58:42;9.05;;;2.60;;
68398;SDS011;56258;52.196;13.868;2022-12-18T10:01:15;9.23;;;2.85;;
68398;SDS011;56258;52.196;13.868;2022-12-18T10:03:47;8.40;;;3.00;;
68398;SDS011;56258;52.196;13.868;2022-12-18T10:06:15;8.13;;;2.53;;
68398;SDS011;56258;52.196;13.868;2022-12-18T10:08:53;8.30;;;2.92;;
68398;SDS011;56258;52.196;13.868;2022-12-18T10:20:12;8.75;;;2.80;;
68398;SDS011;56258;52.196;13.868;2022-12-18T10:22:59;9.25;;;3.08;;
68398;SDS011;56258;52.196;13.868;2022-12-18T10:28:23;8.15;;;2.50;;
68398;SDS011;56258;52.196;13.868;2022-12-18T10:30:51;8.57;;;2.55;;
68398;SDS011;56258;52.196;13.868;2022-12-18T10:33:20;8.18;;;2.70;;
68398;SDS011;56258;52.196;13.868;2022-12-18T10:35:49;9.48;;;2.80;;
68398;SDS011;56258;52.196;13.868;2022-12-18T10:40:51;8.15;;;2.75;;
68398;SDS011;56258;52.196;13.868;2022-12-18T10:43:28;8.73;;;2.90;;
68398;SDS011;56258;52.196;13.868;2022-12-18T10:56:28;8.10;;;2.80;;
68398;SDS011;56258;52.196;13.868;2022-12-18T10:58:58;8.77;;;3.17;;
68398;SDS011;56258;52.196;13.868;2022-12-18T11:01:50;8.80;;;2.95;;
68398;SDS011;56258;52.196;13.868;2022-12-18T11:04:26;7.57;;;2.55;;
68398;SDS011;56258;52.196;13.868;2022-12-18T11:09:30;8.85;;;2.97;;
68398;SDS011;56258;52.196;13.868;2022-12-18T11:12:03;8.70;;;2.80;;
68398;SDS011;56258;52.196;13.868;2022-12-18T11:17:19;9.40;;;3.17;;
68398;SDS011;56258;52.196;13.868;2022-12-18T11:19:55;8.77;;;2.80;;
68398;SDS011;56258;52.196;13.868;2022-12-18T11:22:27;8.05;;;2.45;;
68398;SDS011;56258;52.196;13.868;2022-12-18T11:25:00;9.07;;;3.22;;
68398;SDS011;56258;52.196;13.868;2022-12-18T11:27:55;9.30;;;2.92;;
68398;SDS011;56258;52.196;13.868;2022-12-18T11:30:30;8.13;;;2.60;;
68398;SDS011;56258;52.196;13.868;2022-12-18T11:33:12;8.77;;;2.70;;
68398;SDS011;56258;52.196;13.868;2022-12-18T11:38:33;8.25;;;2.60;;
68398;SDS011;56258;52.196;13.868;2022-12-18T11:41:11;7.97;;;2.67;;
68398;SDS011;56258;52.196;13.868;2022-12-18T11:43:52;8.73;;;2.97;;
68398;SDS011;56258;52.196;13.868;2022-12-18T11:46:30;9.00;;;2.90;;
68398;SDS011;56258;52.196;13.868;2022-12-18T11:51:47;8.52;;;2.92;;
68398;SDS011;56258;52.196;13.868;2022-12-18T11:54:35;8.75;;;2.80;;
68398;SDS011;56258;52.196;13.868;2022-12-18T11:57:09;9.10;;;2.83;;
68398;SDS011;56258;52.196;13.868;2022-12-18T12:06:03;9.40;;;3.03;;
68398;SDS011;56258;52.196;13.868;2022-12-18T12:08:38;8.48;;;2.80;;
68398;SDS011;56258;52.196;13.868;2022-12-18T12:15:12;8.52;;;2.60;;
68398;SDS011;56258;52.196;13.868;2022-12-18T12:42:12;9.07;;;3.03;;
68398;SDS011;56258;52.196;13.868;2022-12-18T12:45:05;10.07;;;2.75;;
68398;SDS011;56258;52.196;13.868;2022-12-18T12:47:35;8.40;;;2.33;;
68398;SDS011;56258;52.196;13.868;2022-12-18T12:50:11;8.10;;;2.67;;
68398;SDS011;56258;52.196;13.868;2022-12-18T12:52:43;8.40;;;2.78;;
68398;SDS011;56258;52.196;13.868;2022-12-18T12:55:31;8.80;;;2.22;;
68398;SDS011;56258;52.196;13.868;2022-12-18T13:01:01;8.02;;;2.90;;
68398;SDS011;56258;52.196;13.868;2022-12-18T13:06:37;8.80;;;2.80;;
68398;SDS011;56258;52.196;13.868;2022-12-18T13:09:15;8.63;;;2.80;;
68398;SDS011;56258;52.196;13.868;2022-12-18T13:11:43;8.00;;;2.63;;
68398;SDS011;56258;52.196;13.868;2022-12-18T13:14:34;8.10;;;2.85;;
68398;SDS011;56258;52.196;13.868;2022-12-18T13:19:48;8.27;;;2.60;;
68398;SDS011;56258;52.196;13.868;2022-12-18T13:22:46;8.00;;;2.95;;
68398;SDS011;56258;52.196;13.868;2022-12-18T13:25:28;8.38;;;2.83;;
68398;SDS011;56258;52.196;13.868;2022-12-18T13:38:23;8.10;;;2.83;;
68398;SDS011;56258;52.196;13.868;2022-12-18T13:40:54;7.93;;;2.58;;
68398;SDS011;56258;52.196;13.868;2022-12-18T13:43:24;9.18;;;3.03;;
68398;SDS011;56258;52.196;13.868;2022-12-18T13:48:33;14.07;;;3.17;;
68398;SDS011;56258;52.196;13.868;2022-12-18T13:51:08;12.10;;;3.40;;
68398;SDS011;56258;52.196;13.868;2022-12-18T13:53:44;13.70;;;4.00;;
68398;SDS011;56258;52.196;13.868;2022-12-18T13:56:16;9.45;;;3.00;;
68398;SDS011;56258;52.196;13.868;2022-12-18T13:58:44;10.98;;;3.53;;
68398;SDS011;56258;52.196;13.868;2022-12-18T14:01:21;12.07;;;3.85;;
68398;SDS011;56258;52.196;13.868;2022-12-18T14:04:08;14.85;;;4.03;;
68398;SDS011;56258;52.196;13.868;2022-12-18T14:06:36;10.98;;;3.45;;
68398;SDS011;56258;52.196;13.868;2022-12-18T14:09:04;10.65;;;3.53;;
68398;SDS011;56258;52.196;13.868;2022-12-18T14:11:34;12.80;;;3.95;;
68398;SDS011;56258;52.196;13.868;2022-12-18T14:14:02;12.85;;;3.67;;
68398;SDS011;56258;52.196;13.868;2022-12-18T14:16:31;10.65;;;3.50;;
68398;SDS011;56258;52.196;13.868;2022-12-18T14:18:59;10.35;;;3.22;;
68398;SDS011;56258;52.196;13.868;2022-12-18T14:21:40;9.80;;;3.28;;
68398;SDS011;56258;52.196;13.868;2022-12-18T14:24:21;10.40;;;3.20;;
68398;SDS011;56258;52.196;13.868;2022-12-18T14:26:49;10.30;;;3.42;;
68398;SDS011;56258;52.196;13.868;2022-12-18T14:29:26;10.30;;;3.50;;
68398;SDS011;56258;52.196;13.868;2022-12-18T14:32:05;8.68;;;3.28;;
68398;SDS011;56258;52.196;13.868;2022-12-18T14:34:52;9.00;;;2.65;;
68398;SDS011;56258;52.196;13.868;2022-12-18T14:37:21;10.32;;;3.33;;
68398;SDS011;56258;52.196;13.868;2022-12-18T14:40:02;8.85;;;2.92;;
68398;SDS011;56258;52.196;13.868;2022-12-18T14:42:36;8.70;;;2.90;;
68398;SDS011;56258;52.196;13.868;2022-12-18T14:48:08;9.38;;;3.45;;
68398;SDS011;56258;52.196;13.868;2022-12-18T14:53:55;9.07;;;2.83;;
68398;SDS011;56258;52.196;13.868;2022-12-18T14:56:32;8.50;;;3.10;;
68398;SDS011;56258;52.196;13.868;2022-12-18T14:59:02;8.43;;;3.08;;
68398;SDS011;56258;52.196;13.868;2022-12-18T15:02:30;7.22;;;2.72;;
68398;SDS011;56258;52.196;13.868;2022-12-18T15:04:42;8.55;;;2.78;;
68398;SDS011;56258;52.196;13.868;2022-12-18T15:10:10;8.40;;;2.80;;
68398;SDS011;56258;52.196;13.868;2022-12-18T15:18:00;9.88;;;3.00;;
68398;SDS011;56258;52.196;13.868;2022-12-18T15:20:31;9.40;;;3.10;;
68398;SDS011;56258;52.196;13.868;2022-12-18T15:23:12;7.90;;;2.90;;
68398;SDS011;56258;52.196;13.868;2022-12-18T15:25:42;8.57;;;2.97;;
68398;SDS011;56258;52.196;13.868;2022-12-18T15:28:19;8.60;;;3.13;;
68398;SDS011;56258;52.196;13.868;2022-12-18T15:31:17;8.13;;;2.78;;
68398;SDS011;56258;52.196;13.868;2022-12-18T15:36:20;8.93;;;2.90;;
68398;SDS011;56258;52.196;13.868;2022-12-18T15:38:53;9.13;;;3.00;;
68398;SDS011;56258;52.196;13.868;2022-12-18T15:41:34;8.68;;;2.90;;
68398;SDS011;56258;52.196;13.868;2022-12-18T15:44:02;8.00;;;2.90;;
68398;SDS011;56258;52.196;13.868;2022-12-18T15:46:29;9.73;;;2.92;;
68398;SDS011;56258;52.196;13.868;2022-12-18T15:48:57;7.40;;;2.63;;
68398;SDS011;56258;52.196;13.868;2022-12-18T15:51:31;8.07;;;2.72;;
68398;SDS011;56258;52.196;13.868;2022-12-18T15:54:04;8.68;;;2.70;;
68398;SDS011;56258;52.196;13.868;2022-12-18T15:56:35;8.02;;;2.60;;
68398;SDS011;56258;52.196;13.868;2022-12-18T15:59:22;8.85;;;2.65;;
68398;SDS011;56258;52.196;13.868;2022-12-18T16:01:49;8.48;;;2.60;;
68398;SDS011;56258;52.196;13.868;2022-12-18T16:04:19;9.02;;;2.90;;
68398;SDS011;56258;52.196;13.868;2022-12-18T16:06:47;8.38;;;2.70;;
68398;SDS011;56258;52.196;13.868;2022-12-18T16:09:35;8.82;;;3.08;;
68398;SDS011;56258;52.196;13.868;2022-12-18T16:12:02;7.30;;;2.55;;
68398;SDS011;56258;52.196;13.868;2022-12-18T16:14:29;7.53;;;2.63;;
68398;SDS011;56258;52.196;13.868;2022-12-18T16:16:58;8.73;;;3.10;;
68398;SDS011;56258;52.196;13.868;2022-12-18T16:19:27;7.55;;;2.83;;
68398;SDS011;56258;52.196;13.868;2022-12-18T16:21:55;8.30;;;3.00;;
68398;SDS011;56258;52.196;13.868;2022-12-18T16:24:24;7.93;;;2.63;;
68398;SDS011;56258;52.196;13.868;2022-12-18T16:26:53;7.55;;;2.78;;
68398;SDS011;56258;52.196;13.868;2022-12-18T16:29:23;7.50;;;2.90;;
68398;SDS011;56258;52.196;13.868;2022-12-18T16:31:54;7.65;;;2.75;;
68398;SDS011;56258;52.196;13.868;2022-12-18T16:34:25;8.82;;;2.83;;
68398;SDS011;56258;52.196;13.868;2022-12-18T16:36:55;7.65;;;2.50;;
68398;SDS011;56258;52.196;13.868;2022-12-18T16:39:30;8.55;;;3.10;;
68398;SDS011;56258;52.196;13.868;2022-12-18T16:41:59;8.90;;;2.92;;
68398;SDS011;56258;52.196;13.868;2022-12-18T16:44:31;9.05;;;3.47;;
68398;SDS011;56258;52.196;13.868;2022-12-18T16:46:58;8.75;;;3.08;;
68398;SDS011;56258;52.196;13.868;2022-12-18T16:49:28;8.90;;;3.38;;
68398;SDS011;56258;52.196;13.868;2022-12-18T16:51:55;8.73;;;3.45;;
68398;SDS011;56258;52.196;13.868;2022-12-18T16:54:22;8.52;;;3.22;;
68398;SDS011;56258;52.196;13.868;2022-12-18T16:56:49;8.15;;;2.88;;
68398;SDS011;56258;52.196;13.868;2022-12-18T16:59:17;8.60;;;3.40;;
68398;SDS011;56258;52.196;13.868;2022-12-18T17:01:45;8.98;;;3.53;;
68398;SDS011;56258;52.196;13.868;2022-12-18T17:04:12;9.38;;;3.28;;
68398;SDS011;56258;52.196;13.868;2022-12-18T17:06:41;9.63;;;3.50;;
68398;SDS011;56258;52.196;13.868;2022-12-18T17:09:13;8.77;;;3.28;;